createdAt,value
2022-08-26T00:00:35.658Z,91.97
2022-08-26T00:01:28.943Z,91.97
2022-08-26T00:02:19.424Z,91.87
2022-08-26T00:03:10.182Z,92.07
2022-08-26T00:04:15.448Z,92.35
2022-08-26T00:05:14.509Z,91.97
2022-08-26T00:06:12.525Z,92.83
2022-08-26T00:07:12.360Z,92.74
2022-08-26T00:08:11.135Z,92.55
2022-08-26T00:09:28.145Z,92.35
2022-08-26T00:10:15.144Z,93.03
2022-08-26T00:11:26.627Z,92.79
2022-08-26T00:12:13.113Z,93.03
2022-08-26T00:13:16.906Z,92.83
2022-08-26T00:14:29.522Z,93.32
2022-08-26T00:15:24.601Z,93.32
2022-08-26T00:16:14.805Z,93.03
2022-08-26T00:17:14.577Z,93.41
2022-08-26T00:18:21.710Z,93.27
2022-08-26T00:19:15.106Z,94.14
2022-08-26T00:20:35.996Z,93.61
2022-08-26T00:21:20.233Z,94.14
2022-08-26T00:22:14.401Z,94.24
2022-08-26T00:23:16.456Z,94.53
2022-08-26T00:24:25.987Z,94.34
2022-08-26T00:25:33.163Z,94.04
2022-08-26T00:26:28.442Z,94.53
2022-08-26T00:27:20.890Z,93.95
2022-08-26T00:28:19.053Z,94.43
2022-08-26T00:29:21.426Z,94.82
2022-08-26T00:30:22.707Z,94.92
2022-08-26T00:31:31.361Z,95.01
2022-08-26T00:32:22.145Z,94.92
2022-08-26T00:33:24.819Z,94.72
2022-08-26T00:34:25.951Z,94.92
2022-08-26T00:35:18.690Z,95.01
2022-08-26T00:36:40.730Z,95.40
2022-08-26T00:37:39.593Z,95.01
2022-08-26T00:38:22.902Z,94.92
2022-08-26T00:39:17.691Z,95.01
2022-08-26T00:40:22.154Z,94.72
2022-08-26T00:41:20.777Z,95.30
2022-08-26T00:42:22.099Z,95.30
2022-08-26T00:43:22.740Z,95.40
2022-08-26T00:44:22.441Z,95.40
2022-08-26T00:45:31.152Z,95.30
2022-08-26T00:46:32.075Z,95.30
2022-08-26T00:47:25.630Z,95.01
2022-08-26T00:48:31.779Z,95.20
2022-08-26T00:49:35.264Z,95.01
2022-08-26T00:50:25.136Z,95.30
2022-08-26T00:51:25.144Z,95.20
2022-08-26T00:52:15.829Z,95.40
2022-08-26T00:53:11.331Z,95.78
2022-08-26T00:54:12.467Z,95.88
2022-08-26T00:55:10.016Z,95.40
2022-08-26T00:56:17.393Z,96.17
2022-08-26T00:57:17.099Z,96.26
2022-08-26T00:58:12.388Z,96.17
2022-08-26T00:59:14.646Z,96.08
2022-08-26T01:00:15.573Z,95.59
2022-08-26T01:01:14.965Z,95.68
2022-08-26T01:02:21.280Z,95.68
2022-08-26T01:03:15.393Z,95.88
2022-08-26T01:04:21.948Z,95.59
2022-08-26T01:05:28.202Z,95.59
2022-08-26T01:06:19.610Z,95.59
2022-08-26T01:07:16.644Z,95.78
2022-08-26T01:08:18.700Z,96.08
2022-08-26T01:09:23.826Z,95.68
2022-08-26T01:10:24.968Z,95.68
2022-08-26T01:11:23.737Z,96.17
2022-08-26T01:12:22.319Z,96.46
2022-08-26T01:13:12.591Z,96.46
2022-08-26T01:14:28.674Z,96.66
2022-08-26T01:15:20.695Z,96.75
2022-08-26T01:16:23.530Z,96.66
2022-08-26T01:17:11.387Z,96.75
2022-08-26T01:18:16.001Z,96.56
2022-08-26T01:19:10.787Z,96.56
2022-08-26T01:20:11.304Z,96.66
2022-08-26T01:21:13.669Z,96.56
2022-08-26T01:22:15.004Z,96.66
2022-08-26T01:23:26.069Z,96.46
2022-08-26T01:24:13.959Z,96.66
2022-08-26T01:25:10.518Z,96.36
2022-08-26T01:26:19.827Z,96.17
2022-08-26T01:27:11.145Z,96.56
2022-08-26T01:28:16.271Z,96.46
2022-08-26T01:29:11.876Z,96.46
2022-08-26T01:30:19.258Z,96.08
2022-08-26T01:31:12.623Z,95.88
2022-08-26T01:32:18.459Z,95.78
2022-08-26T01:33:14.461Z,95.59
2022-08-26T01:34:13.343Z,95.59
2022-08-26T01:35:14.577Z,95.88
2022-08-26T01:36:20.420Z,95.59
2022-08-26T01:37:14.172Z,95.78
2022-08-26T01:38:20.434Z,95.40
2022-08-26T01:39:10.629Z,95.88
2022-08-26T01:40:13.731Z,96.08
2022-08-26T01:41:16.259Z,95.88
2022-08-26T01:42:14.525Z,96.56
2022-08-26T01:43:09.414Z,96.66
2022-08-26T01:44:14.227Z,96.46
2022-08-26T01:45:14.237Z,96.66
2022-08-26T01:46:19.668Z,95.68
2022-08-26T01:47:18.446Z,95.68
2022-08-26T01:48:15.381Z,96.66
2022-08-26T01:49:12.726Z,96.66
2022-08-26T01:50:27.652Z,96.66
2022-08-26T01:51:15.609Z,96.94
2022-08-26T01:52:13.872Z,96.80
2022-08-26T01:53:14.494Z,96.75
2022-08-26T01:54:14.504Z,97.04
2022-08-26T01:55:11.640Z,96.84
2022-08-26T01:56:20.695Z,97.72
2022-08-26T01:57:32.442Z,97.42
2022-08-26T01:58:11.457Z,97.42
2022-08-26T01:59:19.655Z,97.28
2022-08-26T02:00:13.313Z,97.14
2022-08-26T02:01:24.412Z,97.47
2022-08-26T02:02:17.215Z,98.00
2022-08-26T02:03:18.454Z,97.52
2022-08-26T02:04:12.112Z,97.72
2022-08-26T02:05:16.110Z,98.34
2022-08-26T02:06:13.556Z,97.72
2022-08-26T02:07:12.332Z,98.39
2022-08-26T02:08:10.701Z,98.20
2022-08-26T02:09:16.339Z,97.86
2022-08-26T02:10:12.659Z,97.86
2022-08-26T02:11:13.278Z,97.67
2022-08-26T02:12:15.131Z,97.96
2022-08-26T02:13:13.090Z,98.44
2022-08-26T02:14:16.986Z,98.44
2022-08-26T02:15:18.426Z,98.05
2022-08-26T02:16:14.282Z,98.30
2022-08-26T02:17:23.558Z,99.02
2022-08-26T02:18:15.169Z,99.11
2022-08-26T02:19:17.338Z,99.02
2022-08-26T02:20:18.478Z,99.02
2022-08-26T02:21:14.726Z,99.02
2022-08-26T02:22:18.885Z,99.21
2022-08-26T02:23:11.312Z,98.34
2022-08-26T02:24:22.993Z,99.11
2022-08-26T02:25:16.137Z,99.21
2022-08-26T02:26:16.507Z,99.31
2022-08-26T02:27:28.151Z,99.21
2022-08-26T02:28:13.906Z,99.31
2022-08-26T02:29:24.667Z,99.69
2022-08-26T02:30:13.099Z,99.50
2022-08-26T02:31:13.775Z,99.02
2022-08-26T02:32:18.479Z,99.99
2022-08-26T02:33:14.040Z,99.99
2022-08-26T02:34:14.456Z,99.69
2022-08-26T02:35:13.242Z,99.79
2022-08-26T02:36:21.842Z,99.99
2022-08-26T02:37:15.603Z,99.99
2022-08-26T02:38:10.169Z,99.99
2022-08-26T02:39:15.014Z,99.99
2022-08-26T02:40:16.521Z,99.99
2022-08-26T02:41:16.038Z,99.99
2022-08-26T02:42:16.661Z,99.99
2022-08-26T02:43:14.519Z,99.99
2022-08-26T02:44:20.666Z,99.99
2022-08-26T02:45:23.316Z,99.99
2022-08-26T02:46:21.468Z,99.99
2022-08-26T02:47:14.156Z,99.99
2022-08-26T02:48:17.213Z,99.99
2022-08-26T02:49:14.764Z,99.99
2022-08-26T02:50:13.947Z,99.99
2022-08-26T02:51:16.830Z,99.99
2022-08-26T02:52:16.316Z,99.99
2022-08-26T02:53:15.196Z,99.99
2022-08-26T02:54:14.793Z,99.99
2022-08-26T02:55:16.441Z,99.99
2022-08-26T02:56:17.675Z,99.99
2022-08-26T02:57:15.121Z,99.99
2022-08-26T02:58:15.338Z,99.99
2022-08-26T02:59:20.256Z,99.99
2022-08-26T03:00:14.425Z,99.99
2022-08-26T03:01:28.797Z,99.99
2022-08-26T03:02:28.625Z,99.99
2022-08-26T03:03:30.215Z,99.99
2022-08-26T03:04:12.714Z,99.99
2022-08-26T03:05:26.136Z,99.99
2022-08-26T03:06:19.276Z,99.99
2022-08-26T03:07:17.443Z,99.99
2022-08-26T03:08:19.190Z,99.99
2022-08-26T03:09:18.831Z,99.99
2022-08-26T03:10:13.260Z,99.99
2022-08-26T03:11:13.167Z,99.99
2022-08-26T03:12:13.583Z,99.99
2022-08-26T03:13:15.737Z,99.99
2022-08-26T03:14:18.011Z,99.99
2022-08-26T03:15:18.396Z,99.99
2022-08-26T03:16:11.706Z,99.99
2022-08-26T03:17:14.945Z,99.99
2022-08-26T03:18:20.560Z,99.99
2022-08-26T03:19:11.276Z,99.99
2022-08-26T03:20:15.604Z,99.99
2022-08-26T03:21:12.310Z,99.99
2022-08-26T03:22:17.029Z,99.99
2022-08-26T03:23:16.316Z,99.99
2022-08-26T03:24:15.196Z,99.99
2022-08-26T03:25:15.102Z,99.99
2022-08-26T03:26:22.176Z,99.99
2022-08-26T03:27:20.137Z,99.99
2022-08-26T03:28:19.406Z,99.99
2022-08-26T03:29:15.741Z,99.99
2022-08-26T03:30:16.779Z,99.99
2022-08-26T03:31:15.873Z,99.99
2022-08-26T03:32:23.441Z,99.99
2022-08-26T03:33:14.556Z,99.99
2022-08-26T03:34:13.931Z,99.99
2022-08-26T03:35:18.548Z,99.99
2022-08-26T03:36:15.174Z,99.99
2022-08-26T03:37:20.506Z,99.99
2022-08-26T03:38:13.343Z,99.99
2022-08-26T03:39:17.040Z,99.99
2022-08-26T03:40:15.446Z,99.99
2022-08-26T03:41:19.507Z,99.99
2022-08-26T03:42:16.753Z,99.99
2022-08-26T03:43:12.058Z,99.99
2022-08-26T03:44:19.325Z,99.99
2022-08-26T03:45:18.002Z,99.99
2022-08-26T03:46:21.737Z,99.99
2022-08-26T03:47:18.728Z,99.99
2022-08-26T03:48:21.809Z,99.99
2022-08-26T03:49:16.385Z,99.99
2022-08-26T03:50:22.815Z,99.99
2022-08-26T03:51:19.885Z,99.99
2022-08-26T03:52:17.431Z,99.99
2022-08-26T03:53:16.822Z,99.99
2022-08-26T03:54:19.393Z,99.99
2022-08-26T03:55:17.246Z,99.99
2022-08-26T03:56:22.578Z,99.99
2022-08-26T03:57:16.776Z,99.99
2022-08-26T03:58:30.169Z,99.99
2022-08-26T03:59:19.832Z,99.99
2022-08-26T04:00:18.762Z,99.99
2022-08-26T04:01:20.896Z,99.99
2022-08-26T04:02:14.323Z,99.99
2022-08-26T04:03:18.540Z,99.99
2022-08-26T04:04:22.711Z,99.99
2022-08-26T04:05:18.542Z,99.99
2022-08-26T04:06:16.297Z,99.99
2022-08-26T04:07:25.312Z,99.99
2022-08-26T04:08:23.272Z,99.99
2022-08-26T04:09:14.678Z,99.99
2022-08-26T04:10:29.614Z,99.99
2022-08-26T04:11:29.439Z,99.99
2022-08-26T04:12:26.867Z,99.99
2022-08-26T04:13:13.270Z,99.99
2022-08-26T04:14:23.668Z,99.99
2022-08-26T04:15:18.509Z,99.99
2022-08-26T04:16:22.870Z,99.99
2022-08-26T04:17:30.607Z,99.99
2022-08-26T04:18:37.298Z,99.99
2022-08-26T04:19:30.310Z,99.99
2022-08-26T04:20:29.188Z,99.99
2022-08-26T04:21:20.289Z,99.99
2022-08-26T04:22:24.830Z,99.99
2022-08-26T04:23:15.998Z,99.99
2022-08-26T04:24:25.732Z,99.99
2022-08-26T04:25:20.550Z,99.99
2022-08-26T04:26:17.552Z,99.99
2022-08-26T04:27:17.764Z,99.99
2022-08-26T04:28:18.692Z,99.99
2022-08-26T04:29:23.208Z,99.99
2022-08-26T04:30:18.808Z,99.99
2022-08-26T04:31:22.858Z,99.99
2022-08-26T04:32:18.723Z,99.99
2022-08-26T04:33:41.732Z,99.99
2022-08-26T04:34:18.224Z,99.99
2022-08-26T04:35:26.835Z,99.99
2022-08-26T04:36:28.784Z,99.99
2022-08-26T04:37:26.636Z,99.99
2022-08-26T04:38:29.760Z,99.99
2022-08-26T04:39:38.532Z,99.99
2022-08-26T04:40:46.942Z,99.99
2022-08-26T04:41:22.061Z,99.99
2022-08-26T04:42:26.343Z,99.99
2022-08-26T04:43:19.514Z,99.99
2022-08-26T04:44:25.047Z,99.99
2022-08-26T04:45:28.739Z,99.99
2022-08-26T04:46:14.320Z,99.99
2022-08-26T04:47:19.539Z,99.99
2022-08-26T04:48:18.929Z,99.99
2022-08-26T04:49:20.572Z,99.99
2022-08-26T04:50:19.454Z,99.99
2022-08-26T04:51:13.982Z,99.99
2022-08-26T04:52:23.459Z,99.99
2022-08-26T04:53:18.451Z,99.99
2022-08-26T04:54:25.095Z,99.99
2022-08-26T04:55:29.032Z,99.99
2022-08-26T04:56:17.549Z,99.99
2022-08-26T04:57:14.073Z,99.99
2022-08-26T04:58:11.313Z,99.99
2022-08-26T04:59:16.501Z,99.99
2022-08-26T05:00:16.141Z,99.99
2022-08-26T05:01:17.473Z,99.99
2022-08-26T05:02:14.619Z,99.99
2022-08-26T05:03:15.763Z,99.99
2022-08-26T05:04:19.959Z,99.99
2022-08-26T05:05:16.991Z,99.99
2022-08-26T05:06:17.099Z,99.99
2022-08-26T05:07:12.708Z,99.99
2022-08-26T05:08:25.555Z,99.99
2022-08-26T05:09:22.139Z,99.99
2022-08-26T05:10:09.963Z,99.99
2022-08-26T05:11:13.540Z,99.99
2022-08-26T05:12:13.671Z,99.99
2022-08-26T05:13:20.936Z,99.99
2022-08-26T05:14:15.211Z,99.99
2022-08-26T05:15:20.129Z,99.99
2022-08-26T05:16:15.376Z,99.99
2022-08-26T05:17:26.139Z,99.99
2022-08-26T05:18:30.698Z,99.99
2022-08-26T05:19:21.172Z,99.99
2022-08-26T05:20:26.142Z,99.99
2022-08-26T05:21:25.663Z,99.99
2022-08-26T05:22:18.384Z,99.99
2022-08-26T05:23:17.017Z,99.99
2022-08-26T05:24:33.920Z,99.99
2022-08-26T05:25:34.159Z,99.99
2022-08-26T05:26:22.880Z,99.99
2022-08-26T05:27:22.471Z,99.99
2022-08-26T05:28:22.369Z,99.99
2022-08-26T05:29:25.756Z,99.99
2022-08-26T05:30:26.272Z,99.99
2022-08-26T05:31:57.163Z,99.99
2022-08-26T05:32:30.665Z,99.99
2022-08-26T05:33:20.257Z,99.99
2022-08-26T05:34:17.805Z,99.99
2022-08-26T05:35:21.800Z,99.99
2022-08-26T05:36:16.278Z,99.99
2022-08-26T05:37:25.610Z,99.99
2022-08-26T05:38:24.669Z,99.99
2022-08-26T05:39:16.606Z,99.99
2022-08-26T05:40:18.692Z,99.99
2022-08-26T05:41:14.676Z,99.99
2022-08-26T05:42:19.821Z,99.99
2022-08-26T05:43:15.814Z,99.99
2022-08-26T05:44:11.006Z,99.99
2022-08-26T05:45:22.891Z,99.99
2022-08-26T05:46:13.822Z,99.99
2022-08-26T05:47:25.167Z,99.99
2022-08-26T05:48:34.172Z,99.99
2022-08-26T05:49:18.412Z,99.99
2022-08-26T05:50:28.147Z,99.99
2022-08-26T05:51:10.032Z,99.99
2022-08-26T05:52:12.811Z,99.99
2022-08-26T05:53:17.931Z,99.99
2022-08-26T05:54:28.694Z,99.99
2022-08-26T05:55:20.507Z,99.99
2022-08-26T05:56:21.427Z,99.99
2022-08-26T05:57:19.282Z,99.99
2022-08-26T05:58:18.266Z,99.99
2022-08-26T05:59:21.264Z,99.99
2022-08-26T06:00:12.030Z,99.99
2022-08-26T06:01:24.317Z,99.99
2022-08-26T06:02:22.922Z,99.99
2022-08-26T06:03:20.964Z,99.99
2022-08-26T06:04:20.017Z,99.99
2022-08-26T06:05:19.643Z,99.99
2022-08-26T06:06:16.885Z,99.99
2022-08-26T06:07:25.598Z,99.99
2022-08-26T06:08:24.167Z,99.99
2022-08-26T06:09:27.146Z,99.99
2022-08-26T06:10:30.995Z,99.99
2022-08-26T06:11:18.514Z,99.99
2022-08-26T06:12:22.555Z,99.99
2022-08-26T06:13:21.746Z,99.99
2022-08-26T06:14:22.675Z,99.99
2022-08-26T06:15:19.817Z,99.99
2022-08-26T06:16:16.007Z,99.99
2022-08-26T06:17:29.451Z,99.99
2022-08-26T06:18:28.938Z,99.99
2022-08-26T06:19:17.893Z,99.99
2022-08-26T06:20:20.973Z,99.99
2022-08-26T06:21:13.715Z,99.99
2022-08-26T06:22:23.953Z,99.99
2022-08-26T06:23:19.455Z,99.99
2022-08-26T06:24:16.390Z,99.99
2022-08-26T06:25:24.795Z,99.99
2022-08-26T06:26:26.573Z,99.99
2022-08-26T06:27:22.553Z,99.99
2022-08-26T06:28:16.830Z,99.99
2022-08-26T06:29:24.368Z,99.07
2022-08-26T06:30:15.922Z,97.81
2022-08-26T06:31:17.740Z,97.72
2022-08-26T06:32:14.705Z,97.62
2022-08-26T06:33:25.470Z,97.91
2022-08-26T06:34:30.574Z,97.42
2022-08-26T06:35:19.021Z,97.81
2022-08-26T06:36:15.036Z,98.58
2022-08-26T06:37:27.021Z,98.58
2022-08-26T06:38:13.815Z,98.54
2022-08-26T06:39:20.684Z,95.83
2022-08-26T06:40:29.560Z,94.23
2022-08-26T06:41:21.424Z,93.85
2022-08-26T06:42:21.012Z,93.55
2022-08-26T06:43:19.279Z,93.55
2022-08-26T06:44:23.074Z,93.12
2022-08-26T06:45:17.962Z,91.76
2022-08-26T06:46:22.067Z,90.99
2022-08-26T06:47:17.467Z,90.31
2022-08-26T06:48:15.120Z,89.97
2022-08-26T06:49:18.403Z,89.48
2022-08-26T06:50:28.745Z,88.51
2022-08-26T06:51:28.650Z,88.32
2022-08-26T06:52:21.201Z,87.40
2022-08-26T06:53:16.684Z,85.85
2022-08-26T06:54:22.330Z,86.13
2022-08-26T06:55:21.511Z,85.89
2022-08-26T06:56:25.509Z,85.99
2022-08-26T06:57:24.803Z,84.82
2022-08-26T06:58:27.472Z,84.63
2022-08-26T06:59:23.173Z,83.95
2022-08-26T07:00:15.397Z,83.70
2022-08-26T07:01:24.381Z,83.22
2022-08-26T07:02:25.365Z,83.22
2022-08-26T07:03:21.356Z,82.63
2022-08-26T07:04:34.986Z,81.90
2022-08-26T07:05:32.846Z,81.70
2022-08-26T07:06:16.611Z,82.57
2022-08-26T07:07:27.938Z,81.80
2022-08-26T07:08:29.789Z,81.21
2022-08-26T07:09:34.516Z,80.87
2022-08-26T07:10:21.311Z,80.19
2022-08-26T07:11:15.678Z,80.09
2022-08-26T07:12:27.057Z,79.12
2022-08-26T07:13:10.365Z,78.92
2022-08-26T07:14:26.553Z,79.25
2022-08-26T07:15:31.208Z,78.97
2022-08-26T07:16:22.312Z,78.58
2022-08-26T07:17:27.082Z,78.38
2022-08-26T07:18:35.080Z,78.19
2022-08-26T07:19:30.755Z,78.09
2022-08-26T07:20:33.058Z,77.74
2022-08-26T07:21:26.090Z,76.57
2022-08-26T07:22:40.502Z,75.99
2022-08-26T07:23:32.444Z,76.97
2022-08-26T07:24:24.877Z,76.97
2022-08-26T07:25:16.485Z,76.77
2022-08-26T07:26:19.473Z,76.77
2022-08-26T07:27:24.589Z,75.60
2022-08-26T07:28:21.937Z,75.54
2022-08-26T07:29:32.183Z,75.64
2022-08-26T07:30:35.223Z,75.84
2022-08-26T07:31:21.426Z,75.35
2022-08-26T07:32:23.117Z,75.29
2022-08-26T07:33:28.420Z,74.90
2022-08-26T07:34:36.106Z,74.80
2022-08-26T07:35:28.020Z,73.15
2022-08-26T07:36:36.014Z,73.54
2022-08-26T07:37:19.943Z,72.47
2022-08-26T07:38:15.961Z,72.47
2022-08-26T07:39:31.627Z,72.17
2022-08-26T07:40:24.812Z,72.86
2022-08-26T07:42:30.524Z,71.53
2022-08-26T07:43:31.085Z,71.62
2022-08-26T07:44:28.391Z,71.92
2022-08-26T07:45:27.474Z,72.60
2022-08-26T07:46:39.054Z,72.11
2022-08-26T07:47:26.314Z,72.31
2022-08-26T07:48:19.719Z,72.50
2022-08-26T07:49:48.184Z,72.11
2022-08-26T07:50:21.465Z,71.62
2022-08-26T07:51:31.916Z,71.23
2022-08-26T07:52:33.457Z,71.82
2022-08-26T07:53:35.614Z,71.50
2022-08-26T07:54:27.077Z,72.37
2022-08-26T07:55:28.672Z,72.86
2022-08-26T07:56:37.886Z,73.34
2022-08-26T07:57:22.440Z,73.93
2022-08-26T07:58:56.442Z,73.63
2022-08-26T08:00:01.873Z,73.73
2022-08-26T08:00:56.045Z,73.73
2022-08-26T08:01:58.982Z,73.54
2022-08-26T08:02:32.630Z,73.73
2022-08-26T08:03:37.111Z,73.63
2022-08-26T08:04:42.793Z,73.63
2022-08-26T08:05:34.247Z,74.12
2022-08-26T08:06:50.856Z,73.93
2022-08-26T08:08:00.841Z,74.41
2022-08-26T08:08:57.837Z,73.79
2022-08-26T08:09:32.251Z,73.24
2022-08-26T08:10:48.997Z,74.32
2022-08-26T08:11:48.227Z,74.18
2022-08-26T08:12:46.183Z,74.57
2022-08-26T08:13:35.440Z,74.48
2022-08-26T08:14:44.666Z,74.61
2022-08-26T08:15:51.629Z,74.32
2022-08-26T08:16:46.867Z,74.02
2022-08-26T08:18:51.240Z,73.63
2022-08-26T08:19:39.107Z,73.93
2022-08-26T08:20:32.319Z,74.12
2022-08-26T08:21:30.269Z,73.54
2022-08-26T08:22:34.472Z,73.24
2022-08-26T08:23:36.732Z,73.63
2022-08-26T08:24:40.426Z,73.83
2022-08-26T08:25:37.091Z,74.02
2022-08-26T08:26:31.017Z,73.47
2022-08-26T08:27:30.820Z,72.50
2022-08-26T08:28:28.062Z,72.99
2022-08-26T08:29:29.604Z,73.28
2022-08-26T08:30:35.066Z,72.89
2022-08-26T08:31:33.008Z,72.41
2022-08-26T08:32:27.270Z,72.41
2022-08-26T08:33:36.492Z,72.66
2022-08-26T08:34:33.279Z,73.24
2022-08-26T08:35:25.548Z,73.15
2022-08-26T08:36:23.607Z,74.02
2022-08-26T08:37:23.618Z,74.22
2022-08-26T08:38:21.573Z,73.83
2022-08-26T08:39:21.936Z,73.34
2022-08-26T08:40:23.592Z,74.71
2022-08-26T08:41:44.529Z,74.41
2022-08-26T08:42:26.824Z,74.22
2022-08-26T08:43:37.630Z,72.96
2022-08-26T08:45:25.616Z,72.56
2022-08-26T08:46:23.401Z,72.70
2022-08-26T08:47:22.663Z,73.08
2022-08-26T08:48:31.163Z,72.70
2022-08-26T08:49:31.578Z,71.72
2022-08-26T08:50:31.585Z,71.43
2022-08-26T08:51:30.166Z,70.56
2022-08-26T08:52:19.925Z,70.46
2022-08-26T08:53:21.058Z,70.65
2022-08-26T08:54:27.211Z,70.65
2022-08-26T08:55:36.946Z,70.07
2022-08-26T08:56:23.844Z,70.26
2022-08-26T08:57:27.946Z,70.75
2022-08-26T08:58:23.036Z,71.20
2022-08-26T08:59:27.754Z,70.42
2022-08-26T09:00:19.334Z,70.91
2022-08-26T09:01:20.955Z,70.42
2022-08-26T09:02:30.388Z,71.30
2022-08-26T09:03:22.766Z,71.78
2022-08-26T09:04:25.533Z,72.47
2022-08-26T09:05:18.477Z,72.66
2022-08-26T09:06:20.736Z,72.37
2022-08-26T09:07:39.586Z,72.76
2022-08-26T09:08:23.510Z,72.33
2022-08-26T09:09:20.549Z,72.33
2022-08-26T09:10:24.655Z,72.33
2022-08-26T09:11:32.136Z,72.43
2022-08-26T09:12:29.480Z,73.30
2022-08-26T09:13:26.160Z,73.30
2022-08-26T09:14:19.456Z,74.38
2022-08-26T09:15:30.185Z,73.60
2022-08-26T09:16:20.453Z,73.99
2022-08-26T09:17:21.420Z,74.63
2022-08-26T09:18:22.245Z,74.57
2022-08-26T09:19:28.909Z,75.41
2022-08-26T09:20:26.152Z,75.02
2022-08-26T09:21:24.010Z,75.31
2022-08-26T09:23:23.814Z,75.41
2022-08-26T09:24:19.624Z,75.70
2022-08-26T09:25:23.153Z,75.80
2022-08-26T09:26:25.854Z,75.70
2022-08-26T09:27:17.088Z,75.31
2022-08-26T09:28:28.046Z,74.54
2022-08-26T09:30:17.923Z,74.44
2022-08-26T09:31:22.102Z,74.63
2022-08-26T09:32:31.968Z,74.82
2022-08-26T09:33:33.614Z,74.63
2022-08-26T09:34:28.804Z,74.54
2022-08-26T09:35:25.129Z,74.54
2022-08-26T09:36:29.023Z,73.85
2022-08-26T09:37:30.774Z,73.75
2022-08-26T09:38:30.886Z,73.85
2022-08-26T09:39:37.502Z,73.75
2022-08-26T09:40:27.095Z,73.66
2022-08-26T09:41:30.590Z,73.11
2022-08-26T09:42:24.966Z,73.60
2022-08-26T09:43:28.557Z,73.50
2022-08-26T09:44:18.954Z,72.33
2022-08-26T09:45:27.646Z,72.82
2022-08-26T09:46:30.421Z,73.02
2022-08-26T09:47:23.169Z,72.92
2022-08-26T09:48:22.137Z,72.63
2022-08-26T09:49:25.216Z,72.92
2022-08-26T09:50:28.938Z,72.24
2022-08-26T09:51:30.348Z,72.43
2022-08-26T09:52:19.809Z,72.63
2022-08-26T09:53:16.847Z,72.92
2022-08-26T09:54:30.420Z,72.63
2022-08-26T09:55:15.716Z,72.14
2022-08-26T09:56:25.382Z,72.14
2022-08-26T09:57:32.030Z,71.85
2022-08-26T09:58:20.472Z,71.94
2022-08-26T09:59:23.966Z,71.66
2022-08-26T10:00:30.822Z,72.14
2022-08-26T10:01:30.072Z,71.85
2022-08-26T10:02:26.229Z,72.14
2022-08-26T10:03:24.293Z,71.94
2022-08-26T10:04:26.718Z,71.85
2022-08-26T10:05:22.559Z,71.66
2022-08-26T10:06:29.427Z,71.56
2022-08-26T10:07:36.599Z,72.14
2022-08-26T10:08:24.217Z,71.66
2022-08-26T10:09:26.578Z,71.07
2022-08-26T10:10:44.644Z,70.26
2022-08-26T10:11:23.108Z,70.55
2022-08-26T10:12:27.826Z,70.87
2022-08-26T10:13:21.414Z,71.42
2022-08-26T10:14:36.603Z,71.62
2022-08-26T10:15:29.073Z,71.81
2022-08-26T10:16:40.366Z,71.91
2022-08-26T10:17:30.745Z,72.30
2022-08-26T10:18:33.855Z,72.39
2022-08-26T10:19:55.895Z,72.69
2022-08-26T10:20:23.664Z,71.72
2022-08-26T10:21:20.002Z,71.36
2022-08-26T10:22:35.369Z,71.46
2022-08-26T10:23:19.705Z,71.56
2022-08-26T10:24:32.348Z,71.94
2022-08-26T10:25:31.091Z,70.97
2022-08-26T10:26:24.850Z,70.97
2022-08-26T10:27:18.504Z,71.56
2022-08-26T10:28:37.459Z,71.94
2022-08-26T10:29:24.866Z,71.46
2022-08-26T10:30:34.499Z,71.94
2022-08-26T10:31:40.316Z,71.94
2022-08-26T10:32:41.424Z,72.24
2022-08-26T10:33:31.141Z,71.81
2022-08-26T10:34:35.453Z,72.49
2022-08-26T10:35:25.835Z,72.01
2022-08-26T10:36:25.285Z,72.30
2022-08-26T10:37:28.709Z,72.88
2022-08-26T10:38:26.358Z,72.59
2022-08-26T10:39:33.123Z,72.49
2022-08-26T10:40:20.741Z,72.49
2022-08-26T10:41:19.824Z,72.59
2022-08-26T10:42:33.456Z,71.91
2022-08-26T10:43:25.672Z,72.11
2022-08-26T10:44:24.568Z,71.91
2022-08-26T10:45:23.946Z,72.11
2022-08-26T10:46:29.175Z,72.98
2022-08-26T10:47:30.516Z,72.30
2022-08-26T10:48:35.224Z,72.39
2022-08-26T10:49:33.498Z,72.69
2022-08-26T10:50:19.372Z,72.20
2022-08-26T10:51:25.931Z,72.78
2022-08-26T10:52:34.131Z,72.59
2022-08-26T10:53:32.753Z,71.72
2022-08-26T10:54:26.363Z,72.11
2022-08-26T10:55:28.860Z,72.20
2022-08-26T10:56:33.749Z,72.04
2022-08-26T10:57:41.848Z,71.72
2022-08-26T10:58:45.026Z,72.14
2022-08-26T10:59:24.269Z,71.66
2022-08-26T11:00:29.678Z,71.75
2022-08-26T11:01:23.129Z,71.75
2022-08-26T11:02:27.442Z,71.23
2022-08-26T11:03:29.704Z,71.36
2022-08-26T11:04:37.258Z,71.85
2022-08-26T11:05:29.922Z,71.46
2022-08-26T11:06:24.504Z,71.42
2022-08-26T11:07:22.560Z,71.75
2022-08-26T11:08:25.533Z,71.42
2022-08-26T11:09:21.035Z,71.91
2022-08-26T11:10:30.362Z,72.20
2022-08-26T11:11:32.314Z,72.49
2022-08-26T11:12:25.784Z,72.59
2022-08-26T11:13:24.747Z,72.88
2022-08-26T11:14:17.587Z,72.69
2022-08-26T11:15:19.951Z,72.69
2022-08-26T11:16:17.535Z,72.98
2022-08-26T11:17:30.917Z,72.98
2022-08-26T11:18:34.822Z,72.45
2022-08-26T11:19:20.492Z,72.36
2022-08-26T11:20:21.721Z,72.85
2022-08-26T11:21:32.688Z,72.94
2022-08-26T11:22:26.035Z,73.04
2022-08-26T11:23:25.022Z,72.45
2022-08-26T11:24:19.230Z,72.55
2022-08-26T11:25:29.729Z,72.45
2022-08-26T11:26:36.999Z,72.45
2022-08-26T11:27:20.029Z,72.55
2022-08-26T11:28:17.991Z,72.36
2022-08-26T11:29:23.020Z,72.36
2022-08-26T11:30:24.154Z,72.27
2022-08-26T11:31:28.390Z,72.27
2022-08-26T11:32:25.919Z,72.55
2022-08-26T11:33:23.245Z,72.85
2022-08-26T11:34:31.035Z,72.85
2022-08-26T11:35:52.255Z,72.55
2022-08-26T11:36:35.605Z,72.94
2022-08-26T11:38:35.464Z,73.43
2022-08-26T11:39:20.211Z,74.01
2022-08-26T11:40:26.634Z,73.82
2022-08-26T11:41:25.754Z,73.91
2022-08-26T11:42:22.687Z,74.21
2022-08-26T11:43:19.927Z,74.30
2022-08-26T11:44:26.699Z,74.60
2022-08-26T11:45:34.012Z,74.69
2022-08-26T11:46:18.755Z,75.18
2022-08-26T11:47:23.131Z,75.37
2022-08-26T11:48:24.362Z,75.47
2022-08-26T11:49:30.103Z,74.95
2022-08-26T11:50:28.880Z,75.57
2022-08-26T11:51:23.153Z,75.92
2022-08-26T11:52:30.129Z,75.92
2022-08-26T11:53:27.686Z,75.53
2022-08-26T11:54:35.639Z,76.01
2022-08-26T11:55:24.219Z,76.01
2022-08-26T11:56:31.670Z,76.60
2022-08-26T11:57:26.164Z,76.31
2022-08-26T11:58:26.991Z,77.37
2022-08-26T11:59:28.676Z,77.57
2022-08-26T12:00:22.174Z,77.18
2022-08-26T12:01:20.357Z,73.88
2022-08-26T12:02:18.416Z,72.39
2022-08-26T12:03:23.010Z,71.70
2022-08-26T12:04:20.292Z,70.73
2022-08-26T12:05:22.222Z,70.99
2022-08-26T12:06:24.483Z,71.42
2022-08-26T12:07:18.519Z,71.96
2022-08-26T12:08:29.820Z,71.67
2022-08-26T12:09:20.915Z,71.77
2022-08-26T12:10:21.541Z,70.90
2022-08-26T12:11:31.273Z,71.09
2022-08-26T12:12:23.189Z,70.80
2022-08-26T12:13:25.070Z,70.86
2022-08-26T12:14:28.528Z,71.15
2022-08-26T12:15:40.926Z,72.41
2022-08-26T12:16:30.126Z,72.12
2022-08-26T12:17:33.872Z,71.99
2022-08-26T12:18:29.734Z,73.19
2022-08-26T12:19:32.932Z,73.35
2022-08-26T12:20:31.131Z,72.96
2022-08-26T12:21:22.740Z,73.83
2022-08-26T12:22:37.080Z,75.48
2022-08-26T12:23:28.283Z,76.45
2022-08-26T12:24:23.986Z,77.42
2022-08-26T12:25:26.043Z,78.09
2022-08-26T12:26:23.420Z,79.02
2022-08-26T12:27:28.000Z,79.02
2022-08-26T12:28:33.748Z,79.32
2022-08-26T12:29:26.643Z,80.38
2022-08-26T12:30:33.139Z,80.38
2022-08-26T12:31:27.177Z,81.35
2022-08-26T12:32:51.024Z,81.45
2022-08-26T12:33:27.329Z,82.12
2022-08-26T12:34:30.306Z,82.18
2022-08-26T12:35:32.769Z,82.08
2022-08-26T12:36:22.536Z,83.05
2022-08-26T12:37:29.608Z,82.95
2022-08-26T12:38:26.750Z,84.31
2022-08-26T12:39:26.244Z,84.99
2022-08-26T12:40:28.132Z,86.05
2022-08-26T12:41:34.039Z,86.82
2022-08-26T12:42:33.844Z,86.92
2022-08-26T12:43:25.964Z,86.82
2022-08-26T12:44:29.860Z,85.96
2022-08-26T12:45:34.575Z,85.62
2022-08-26T12:46:34.382Z,86.20
2022-08-26T12:47:42.028Z,86.73
2022-08-26T12:48:31.629Z,87.21
2022-08-26T12:49:26.830Z,88.23
2022-08-26T12:50:46.900Z,87.99
2022-08-26T12:51:19.769Z,87.27
2022-08-26T12:52:26.534Z,87.85
2022-08-26T12:53:27.465Z,88.91
2022-08-26T12:54:28.701Z,88.81
2022-08-26T12:55:17.135Z,88.23
2022-08-26T12:56:30.041Z,88.04
2022-08-26T12:57:24.108Z,89.01
2022-08-26T12:58:24.835Z,89.97